createdAt,value
2023-08-08T00:01:25.966Z,98388.88
2023-08-08T00:03:57.712Z,98387.86
2023-08-08T00:06:29.470Z,98393.67
2023-08-08T00:09:01.117Z,98393.20
2023-08-08T00:11:33.206Z,98395.92
2023-08-08T00:14:06.159Z,98392.02
2023-08-08T00:16:40.571Z,98393.72
2023-08-08T00:19:12.336Z,98392.73
2023-08-08T00:21:44.026Z,98396.13
2023-08-08T00:24:16.112Z,98397.16
2023-08-08T00:26:47.796Z,98399.98
2023-08-08T00:29:19.512Z,98399.45
2023-08-08T00:31:51.274Z,98402.67
2023-08-08T00:34:23.105Z,98403.15
2023-08-08T00:36:54.915Z,98400.89
2023-08-08T00:39:26.606Z,98405.36
2023-08-08T00:41:58.597Z,98402.81
2023-08-08T00:44:30.466Z,98406.02
2023-08-08T00:47:02.230Z,98405.89
2023-08-08T00:49:34.085Z,98408.90
2023-08-08T00:52:08.106Z,98415.09
2023-08-08T00:54:39.898Z,98420.91
2023-08-08T00:57:11.577Z,98421.08
2023-08-08T00:59:43.263Z,98423.05
2023-08-08T01:02:15.214Z,98421.36
2023-08-08T01:04:47.198Z,98426.71
2023-08-08T01:07:28.874Z,98428.53
2023-08-08T01:10:08.586Z,98427.33
2023-08-08T01:12:44.025Z,98424.14
2023-08-08T01:15:16.886Z,98424.73
2023-08-08T01:17:50.140Z,98425.71
2023-08-08T01:20:24.153Z,98425.73
2023-08-08T01:23:05.882Z,98427.35
2023-08-08T01:25:38.527Z,98432.48
2023-08-08T01:28:10.683Z,98434.61
2023-08-08T01:30:43.448Z,98433.01
2023-08-08T01:33:15.226Z,98429.14
2023-08-08T01:35:55.256Z,98429.48
2023-08-08T01:38:32.962Z,98430.08
2023-08-08T01:41:06.949Z,98432.61
2023-08-08T01:43:39.845Z,98429.86
2023-08-08T01:46:12.375Z,98428.73
2023-08-08T01:48:48.748Z,98427.62
2023-08-08T01:51:20.459Z,98431.92
2023-08-08T01:53:52.232Z,98430.79
2023-08-08T01:56:24.039Z,98431.73
2023-08-08T01:58:55.773Z,98431.71
2023-08-08T02:01:27.673Z,98432.37
2023-08-08T02:03:59.535Z,98431.13
2023-08-08T02:06:31.381Z,98431.80
2023-08-08T02:09:03.257Z,98433.20
2023-08-08T02:11:35.028Z,98435.66
2023-08-08T02:14:06.794Z,98438.66
2023-08-08T02:16:40.538Z,98439.23
2023-08-08T02:19:12.215Z,98442.20
2023-08-08T02:21:44.033Z,98446.14
2023-08-08T02:24:15.786Z,98447.29
2023-08-08T02:26:47.493Z,98448.73
2023-08-08T02:29:19.205Z,98450.01
2023-08-08T02:31:50.918Z,98446.89
2023-08-08T02:34:22.668Z,98450.45
2023-08-08T02:36:54.369Z,98452.08
2023-08-08T02:39:26.100Z,98461.40
2023-08-08T02:41:58.255Z,98456.36
2023-08-08T02:44:31.678Z,98456.98
2023-08-08T02:47:03.389Z,98461.68
2023-08-08T02:49:35.552Z,98460.72
2023-08-08T02:52:08.307Z,98460.02
2023-08-08T02:54:39.978Z,98463.75
2023-08-08T02:57:12.973Z,98465.91
2023-08-08T02:59:44.712Z,98472.13
2023-08-08T03:02:16.384Z,98470.04
2023-08-08T03:04:48.071Z,98475.98
2023-08-08T03:07:19.769Z,98473.13
2023-08-08T03:09:51.477Z,98474.61
2023-08-08T03:12:23.143Z,98474.72
2023-08-08T03:14:54.921Z,98478.05
2023-08-08T03:17:26.658Z,98478.35
2023-08-08T03:19:58.350Z,98483.27
2023-08-08T03:22:30.124Z,98491.47
2023-08-08T03:25:01.921Z,98497.03
2023-08-08T03:27:33.689Z,98497.21
2023-08-08T03:30:06.251Z,98500.00
2023-08-08T03:32:37.968Z,98501.54
2023-08-08T03:35:11.537Z,98506.42
2023-08-08T03:37:43.239Z,98508.83
2023-08-08T03:40:16.051Z,98514.22
2023-08-08T03:42:47.774Z,98520.13
2023-08-08T03:45:19.645Z,98517.23
2023-08-08T03:47:51.453Z,98518.25
2023-08-08T03:50:23.590Z,98519.13
2023-08-08T03:52:55.493Z,98522.80
2023-08-08T03:55:27.256Z,98527.86
2023-08-08T03:57:58.983Z,98532.55
2023-08-08T04:00:30.741Z,98536.59
2023-08-08T04:03:02.495Z,98534.14
2023-08-08T04:05:34.504Z,98538.36
2023-08-08T04:08:06.867Z,98538.34
2023-08-08T04:10:38.597Z,98543.41
2023-08-08T04:13:10.490Z,98542.98
2023-08-08T04:15:42.201Z,98545.35
2023-08-08T04:18:13.954Z,98548.44
2023-08-08T04:20:47.345Z,98544.73
2023-08-08T04:23:18.999Z,98552.74
2023-08-08T04:25:50.684Z,98555.75
2023-08-08T04:28:22.639Z,98564.72
2023-08-08T04:30:54.368Z,98569.65
2023-08-08T04:33:26.100Z,98570.80
2023-08-08T04:35:57.798Z,98573.06
2023-08-08T04:38:29.504Z,98576.46
2023-08-08T04:41:01.382Z,98582.38
2023-08-08T04:43:33.102Z,98582.35
2023-08-08T04:46:04.848Z,98585.53
2023-08-08T04:48:36.609Z,98591.92
2023-08-08T04:51:10.644Z,98593.73
2023-08-08T04:53:42.295Z,98599.34
2023-08-08T04:56:14.114Z,98595.63
2023-08-08T04:58:45.792Z,98598.92
2023-08-08T05:01:19.066Z,98604.10
2023-08-08T05:03:53.702Z,98605.89
2023-08-08T05:06:27.064Z,98609.40
2023-08-08T05:08:58.911Z,98608.58
2023-08-08T05:11:30.712Z,98615.27
2023-08-08T05:14:02.533Z,98614.98
2023-08-08T05:16:34.309Z,98617.95
2023-08-08T05:19:05.996Z,98618.00
2023-08-08T05:21:37.931Z,98621.66
2023-08-08T05:24:09.745Z,98618.16
2023-08-08T05:26:41.452Z,98616.66
2023-08-08T05:29:13.120Z,98616.36
2023-08-08T05:31:44.764Z,98612.67
2023-08-08T05:34:16.430Z,98616.41
2023-08-08T05:36:49.230Z,98616.73
2023-08-08T05:39:23.646Z,98621.33
2023-08-08T05:41:55.528Z,98620.73
2023-08-08T05:44:27.273Z,98623.70
2023-08-08T05:46:58.929Z,98620.55
2023-08-08T05:49:30.706Z,98626.14
2023-08-08T05:52:03.786Z,98628.85
2023-08-08T05:54:35.708Z,98629.54
2023-08-08T05:57:09.066Z,98629.40
2023-08-08T05:59:40.794Z,98628.66
2023-08-08T06:02:12.457Z,98623.92
2023-08-08T06:04:44.196Z,98622.15
2023-08-08T06:07:15.890Z,98619.81
2023-08-08T06:09:47.827Z,98622.70
2023-08-08T06:12:19.549Z,98618.67
2023-08-08T06:14:51.199Z,98615.90
2023-08-08T06:17:24.624Z,98620.77
2023-08-08T06:19:58.061Z,98619.67
2023-08-08T06:22:29.877Z,98619.09
2023-08-08T06:25:01.545Z,98614.96
2023-08-08T06:27:33.404Z,98615.66
2023-08-08T06:30:05.552Z,98611.92
2023-08-08T06:32:37.357Z,98612.37
2023-08-08T06:35:12.215Z,98609.09
2023-08-08T06:37:44.057Z,98611.50
2023-08-08T06:40:16.524Z,98606.19
2023-08-08T06:42:48.228Z,98607.91
2023-08-08T06:45:20.285Z,98600.64
2023-08-08T06:47:52.075Z,98597.80
2023-08-08T06:50:25.499Z,98595.58
2023-08-08T06:52:57.156Z,98593.60
2023-08-08T06:55:28.956Z,98589.70
2023-08-08T06:58:00.661Z,98592.30
2023-08-08T07:00:32.502Z,98588.59
2023-08-08T07:03:04.495Z,98582.95
2023-08-08T07:05:36.831Z,98577.95
2023-08-08T07:08:09.964Z,98575.20
2023-08-08T07:10:42.155Z,98570.67
2023-08-08T07:13:13.982Z,98564.33
2023-08-08T07:15:45.815Z,98565.02
2023-08-08T07:18:17.656Z,98563.48
2023-08-08T07:20:50.653Z,98562.43
2023-08-08T07:23:22.390Z,98562.30
2023-08-08T07:25:54.329Z,98564.57
2023-08-08T07:28:26.208Z,98561.01
2023-08-08T07:30:58.051Z,98562.84
2023-08-08T07:33:29.898Z,98565.04
2023-08-08T07:36:01.712Z,98564.48
2023-08-08T07:38:34.239Z,98562.64
2023-08-08T07:41:06.095Z,98564.48
2023-08-08T07:43:37.877Z,98570.20
2023-08-08T07:46:09.773Z,98570.23
2023-08-08T07:48:41.497Z,98567.88
2023-08-08T07:51:13.202Z,98566.42
2023-08-08T07:53:47.260Z,98564.96
2023-08-08T07:56:19.205Z,98566.00
2023-08-08T07:58:50.928Z,98559.33
2023-08-08T08:01:23.036Z,98556.76
2023-08-08T08:03:54.927Z,98558.78
2023-08-08T08:06:26.609Z,98562.99
2023-08-08T08:08:58.430Z,98564.61
2023-08-08T08:11:30.243Z,98558.77
2023-08-08T08:14:02.131Z,98559.48
2023-08-08T08:16:34.174Z,98557.94
2023-08-08T08:19:05.984Z,98555.81
2023-08-08T08:21:37.663Z,98553.29
2023-08-08T08:24:10.229Z,98559.85
2023-08-08T08:26:41.936Z,98556.30
2023-08-08T08:29:13.737Z,98558.50
2023-08-08T08:31:45.477Z,98545.84
2023-08-08T08:34:17.206Z,98544.63
2023-08-08T08:36:48.929Z,98543.08
2023-08-08T08:39:20.832Z,98539.79
2023-08-08T08:41:56.643Z,98536.36
2023-08-08T08:44:29.895Z,98538.16
2023-08-08T08:47:03.578Z,98532.23
2023-08-08T08:49:37.124Z,98527.21
2023-08-08T08:52:09.144Z,98520.29
2023-08-08T08:54:40.999Z,98527.16
2023-08-08T08:57:13.617Z,98526.04
2023-08-08T08:59:45.489Z,98535.26
2023-08-08T09:02:18.205Z,98545.39
2023-08-08T09:04:50.450Z,98554.67
2023-08-08T09:07:26.993Z,98554.27
2023-08-08T09:09:58.744Z,98554.77
2023-08-08T09:12:30.943Z,98559.52
2023-08-08T09:15:05.221Z,98554.33
2023-08-08T09:17:47.224Z,98554.64
2023-08-08T09:20:20.519Z,98550.48
2023-08-08T09:22:53.557Z,98549.23
2023-08-08T09:25:25.768Z,98553.59
2023-08-08T09:27:57.776Z,98563.15
2023-08-08T09:30:31.027Z,98563.16
2023-08-08T09:33:05.167Z,98559.77
2023-08-08T09:35:40.017Z,98554.90
2023-08-08T09:38:11.779Z,98566.91
2023-08-08T09:40:44.553Z,98587.56
2023-08-08T09:43:16.768Z,98582.98
2023-08-08T09:45:51.284Z,98574.83
2023-08-08T09:48:23.641Z,98578.22
2023-08-08T09:50:55.493Z,98577.86
2023-08-08T09:53:27.872Z,98572.83
2023-08-08T09:56:00.123Z,98560.60
2023-08-08T09:58:32.131Z,98562.70
2023-08-08T10:01:05.876Z,98555.92
2023-08-08T10:03:39.015Z,98549.04
2023-08-08T10:06:11.413Z,98543.83
2023-08-08T10:08:46.749Z,98548.48
2023-08-08T10:11:20.350Z,98536.98
2023-08-08T10:13:52.898Z,98539.88
2023-08-08T10:16:25.918Z,98542.64
2023-08-08T10:19:02.573Z,98537.84
2023-08-08T10:21:37.972Z,98535.52
2023-08-08T10:24:11.746Z,98533.79
2023-08-08T10:26:58.901Z,98536.15
2023-08-08T10:29:32.952Z,98533.52
2023-08-08T10:32:06.637Z,98521.50
2023-08-08T10:34:43.893Z,98522.86
2023-08-08T10:37:16.724Z,98522.49
2023-08-08T10:40:00.052Z,98524.30
2023-08-08T10:42:33.205Z,98518.73
2023-08-08T10:45:06.439Z,98539.98
2023-08-08T10:47:39.827Z,98560.18
2023-08-08T10:50:13.815Z,98564.98
2023-08-08T10:52:57.875Z,98568.65
2023-08-08T10:55:34.375Z,98577.42
2023-08-08T10:58:09.530Z,98580.16
2023-08-08T11:00:42.468Z,98574.56
2023-08-08T11:07:41.324Z,98566.97
2023-08-08T11:10:14.001Z,98566.80
2023-08-08T11:12:53.946Z,98567.79
2023-08-08T11:15:28.754Z,98568.36
2023-08-08T11:18:01.533Z,98565.15
2023-08-08T11:20:35.274Z,98560.77
2023-08-08T11:23:11.546Z,98559.33
2023-08-08T11:25:43.861Z,98553.27
2023-08-08T11:28:16.260Z,98553.98
2023-08-08T11:30:49.301Z,98549.58
2023-08-08T11:33:21.125Z,98545.73
2023-08-08T11:35:54.442Z,98544.45
2023-08-08T11:38:26.263Z,98545.01
2023-08-08T11:40:58.169Z,98546.64
